Terminal Aerodrome Forecast
Issued by NWS

Home | Current Version | Previous Version | Text Only | Print | Product List | Glossary On
Versions: 1 2 3 4 5 6 7 8 9 10 11 12 13 14 15
000
FTUS43 KIND 251700
TAFHUF
TAF
KHUF 251721Z 2518/2618 14007KT 2SM -SHRA OVC025
     FM252000 05010KT 2SM -RA OVC009
     FM252200 06012G21KT 2SM -RASN OVC007
     FM260000 02016G26KT 3SM -SN OVC007
     FM260500 36015G22KT P6SM OVC010
     FM260800 01009KT P6SM OVC040=

USA.gov is the U.S. government's official web portal to all federal, state and local government web resources and services.